Fargo, North Dakota
Current Conditions -  °F | °C
As of 9:53 PM on Monday 22 Dec 2014 (Local Time) from KFAR Reporting Station
Light Rain Light Rain  
Wind Chill: 29°   Ceiling: 2600
Heat Index: 35°   Visibility: 6mi
Dew Point: 33°   Wind: 8mph
Humidity: 92%   Direction: 50°NE
Pressure: 29.67"   Gusts: NA
Location:  46.88°N, 96.78°W
Report Text: KFAR 230353Z 05007KT 6SM -RA BR OVC026 02/01 A2967 RMK AO2 SLP059 P0001 I1000 T00170006
Loading
Personal Weather Stations






























Interactive Weather Map New forecast layout! Learn more

10-Day Weather Forecast

Advertisements
Track Severe Weather on mobile